Chhatrapati Shivaji International Airport

Airport
ICAO code: 
VABB
IATA Code: 
BOM
Summary
ICAO Region: 
APAC
Territory: 
Location: 
Mumbai, Maharashtra
Serving: 
Mumbai
Elevation: 
37 ft
Coordinates: 
Aerial View: 
19° 5' 25.724" N, 72° 52' 1.657" E
Metar
Observation
VABB 181000Z 29011KT 3000 FU NSC 31/16 Q1012 NOSIG
Station
Bombay / Santacruz
Date/Time
2022-01-18 10:00:00
Wind direction
290°
Wind speed
11 kts
Lowest cloud amount
nil significant cloud
Temperature
31°C
Dew point
16°C
Humidity
40%
QNH
1012 hPa
Weather condition
n/a

Description

International airport serving the city of Mumbai (formerly Bombay), India.

Climatology

Tropical Savanna climate (Köppen climate classification Aw) - monthly mean temperatures above 18°C, and a pronounced dry season. A Tropical Savanna climate has more pronounced dry seasons than a Tropical Monsoon climate.

Runways

Designator Length Width Surface Rops
14/32 2925 46 ASP Yes/Yes
9/27 3445 45 ASP Yes/Yes
Airport map: 
Aerial View: 

SKYbrary Partners:

Safety knowledge contributed by: